createdAt,value
2018-12-01T00:00:14.093Z,9.19
2018-12-01T00:05:13.409Z,9.29
2018-12-01T00:10:13.888Z,9.19
2018-12-01T00:15:13.415Z,9.19
2018-12-01T00:20:13.714Z,9.29
2018-12-01T00:25:14.152Z,9.29
2018-12-01T00:30:13.410Z,9.19
2018-12-01T00:35:13.705Z,9.19
2018-12-01T00:40:14.146Z,8.99
2018-12-01T00:45:13.714Z,8.99
2018-12-01T00:50:14.026Z,8.99
2018-12-01T00:55:13.505Z,8.89
2018-12-01T01:00:13.738Z,8.79
2018-12-01T01:05:14.072Z,8.69
2018-12-01T01:10:13.481Z,8.59
2018-12-01T01:15:14.019Z,8.69
2018-12-01T01:20:13.323Z,8.49
2018-12-01T01:25:13.783Z,8.69
2018-12-01T01:30:13.975Z,8.49
2018-12-01T01:35:14.284Z,8.49
2018-12-01T01:40:13.767Z,8.49
2018-12-01T01:45:14.295Z,8.29
2018-12-01T01:50:13.612Z,8.39
2018-12-01T01:55:14.079Z,8.19
2018-12-01T02:00:14.306Z,8.09
2018-12-01T02:05:13.630Z,7.99
2018-12-01T02:10:14.052Z,7.99
2018-12-01T02:15:13.666Z,7.99
2018-12-01T02:20:13.936Z,7.99
2018-12-01T02:25:13.445Z,8.09
2018-12-01T02:30:13.658Z,8.09
2018-12-01T02:35:13.945Z,7.99
2018-12-01T02:40:14.386Z,8.09
2018-12-01T02:45:14.023Z,8.09
2018-12-01T02:50:14.780Z,8.19
2018-12-01T02:55:14.038Z,8.29
2018-12-01T03:00:14.113Z,8.29
2018-12-01T03:05:13.396Z,8.29
2018-12-01T03:10:13.814Z,8.19
2018-12-01T03:15:13.377Z,8.29
2018-12-01T03:20:13.685Z,8.19
2018-12-01T03:25:14.157Z,8.19
2018-12-01T03:30:13.361Z,8.19
2018-12-01T03:35:13.636Z,8.19
2018-12-01T03:40:14.133Z,8.09
2018-12-01T03:45:13.700Z,8.09
2018-12-01T03:50:13.938Z,8.09
2018-12-01T03:55:13.443Z,8.09
2018-12-01T04:00:13.653Z,7.99
2018-12-01T04:05:13.973Z,7.99
2018-12-01T04:10:13.439Z,7.99
2018-12-01T04:15:13.965Z,8.09
2018-12-01T04:20:14.276Z,7.99
2018-12-01T04:25:13.737Z,8.09
2018-12-01T04:30:13.942Z,8.09
2018-12-01T04:35:14.227Z,8.09
2018-12-01T04:40:13.726Z,8.09
2018-12-01T04:45:14.265Z,8.09
2018-12-01T04:50:13.573Z,8.09
2018-12-01T04:55:14.052Z,7.99
2018-12-01T05:00:14.260Z,8.19
2018-12-01T05:05:13.544Z,8.09
2018-12-01T05:10:13.968Z,8.09
2018-12-01T05:15:13.550Z,8.09
2018-12-01T05:20:13.851Z,8.09
2018-12-01T05:25:14.300Z,8.09
2018-12-01T05:30:13.527Z,8.09
2018-12-01T05:35:13.802Z,7.99
2018-12-01T05:40:14.243Z,7.99
2018-12-01T05:45:13.834Z,7.99
2018-12-01T05:50:14.141Z,7.89
2018-12-01T05:55:13.650Z,7.79
2018-12-01T06:00:13.850Z,7.79
2018-12-01T06:05:14.100Z,7.79
2018-12-01T06:10:13.598Z,7.89
2018-12-01T06:15:14.177Z,7.79
2018-12-01T06:20:13.479Z,7.79
2018-12-01T06:25:13.952Z,7.69
2018-12-01T06:30:14.153Z,7.59
2018-12-01T06:35:13.440Z,7.59
2018-12-01T06:40:13.877Z,7.59
2018-12-01T06:45:13.462Z,7.49
2018-12-01T06:50:13.744Z,7.49
2018-12-01T06:55:14.202Z,7.39
2018-12-01T07:00:13.458Z,7.39
2018-12-01T07:05:13.742Z,7.39
2018-12-01T07:10:14.222Z,7.39
2018-12-01T07:15:13.761Z,7.49
2018-12-01T07:20:14.016Z,7.39
2018-12-01T07:25:13.560Z,7.49
2018-12-01T07:30:13.730Z,7.49
2018-12-01T07:35:13.998Z,7.39
2018-12-01T07:40:13.520Z,7.39
2018-12-01T07:45:14.063Z,7.49
2018-12-01T07:50:13.356Z,7.29
2018-12-01T07:55:13.897Z,7.39
2018-12-01T08:00:14.170Z,7.49
2018-12-01T08:05:13.382Z,7.39
2018-12-01T08:10:13.866Z,7.49
2018-12-01T08:15:13.385Z,7.49
2018-12-01T08:20:13.682Z,7.49
2018-12-01T08:25:14.179Z,7.49
2018-12-01T08:30:13.411Z,7.49
2018-12-01T08:35:13.663Z,7.49
2018-12-01T08:40:14.111Z,7.59
2018-12-01T08:45:14.119Z,7.59
2018-12-01T08:50:13.998Z,7.69
2018-12-01T08:55:13.568Z,7.69
2018-12-01T09:00:13.712Z,7.89
2018-12-01T09:05:14.236Z,7.89
2018-12-01T09:10:13.571Z,7.89
2018-12-01T09:15:14.105Z,7.79
2018-12-01T09:20:13.372Z,7.89
2018-12-01T09:25:13.860Z,7.89
2018-12-01T09:30:14.077Z,7.99
2018-12-01T09:35:13.363Z,7.99
2018-12-01T09:40:13.843Z,8.09
2018-12-01T09:45:13.377Z,8.09
2018-12-01T09:50:13.639Z,8.19
2018-12-01T09:55:14.159Z,8.39
2018-12-01T10:00:13.351Z,8.49
2018-12-01T10:05:13.617Z,8.49
2018-12-01T10:10:14.097Z,8.59
2018-12-01T10:15:13.654Z,8.59
2018-12-01T10:20:14.350Z,8.59
2018-12-01T10:25:13.523Z,8.59
2018-12-01T10:30:13.635Z,8.59
2018-12-01T10:35:13.925Z,8.59
2018-12-01T10:40:13.460Z,9.49
2018-12-01T10:45:13.975Z,9.69
2018-12-01T10:50:13.512Z,9.69
2018-12-01T10:55:13.789Z,9.69
2018-12-01T11:00:13.972Z,9.89
2018-12-01T11:05:14.251Z,9.89
2018-12-01T11:10:13.799Z,9.89
2018-12-01T11:15:13.339Z,9.99
2018-12-01T11:20:13.605Z,10.19
2018-12-01T11:25:14.075Z,10.19
2018-12-01T11:30:13.286Z,10.19
2018-12-01T11:35:13.552Z,10.19
2018-12-01T11:40:15.205Z,9.99
2018-12-01T11:45:13.608Z,9.99
2018-12-01T11:50:13.900Z,10.29
2018-12-01T11:55:13.455Z,10.19
2018-12-01T12:00:13.624Z,10.19
2018-12-01T12:05:13.985Z,10.29
2018-12-01T12:10:13.434Z,10.29
2018-12-01T12:15:13.961Z,10.19
2018-12-01T12:20:14.233Z,10.09
2018-12-01T12:25:13.722Z,10.09
2018-12-01T12:30:13.974Z,10.09
2018-12-01T12:35:14.181Z,10.09
2018-12-01T12:40:13.683Z,9.99
2018-12-01T12:45:13.219Z,9.89
2018-12-01T12:50:13.497Z,9.99
2018-12-01T12:55:14.058Z,9.99
2018-12-01T13:00:14.208Z,9.99
2018-12-01T13:05:13.524Z,9.99
2018-12-01T13:10:14.043Z,9.99
2018-12-01T13:15:13.557Z,9.99
2018-12-01T13:20:13.827Z,9.99
2018-12-01T13:25:14.325Z,10.09
2018-12-01T13:30:13.556Z,9.99
2018-12-01T13:35:13.845Z,9.99
2018-12-01T13:40:14.294Z,9.99
2018-12-01T13:45:13.884Z,9.99
2018-12-01T13:50:14.148Z,9.89
2018-12-01T13:55:13.684Z,9.99
2018-12-01T14:00:13.861Z,9.99
2018-12-01T14:05:14.109Z,9.99
2018-12-01T14:10:13.661Z,9.99
2018-12-01T14:15:14.151Z,9.99
2018-12-01T14:20:13.438Z,9.99
2018-12-01T14:25:13.952Z,9.99
2018-12-01T14:30:14.120Z,9.99
2018-12-01T14:35:13.394Z,9.99
2018-12-01T14:40:13.912Z,9.99
2018-12-01T14:45:13.469Z,9.99
2018-12-01T14:50:13.796Z,9.89
2018-12-01T14:55:14.283Z,9.89
2018-12-01T15:00:13.503Z,9.89
2018-12-01T15:05:13.786Z,9.89
2018-12-01T15:10:14.247Z,9.79
2018-12-01T15:15:13.867Z,9.79
2018-12-01T15:20:14.173Z,9.79
2018-12-01T15:25:13.789Z,9.79
2018-12-01T15:30:13.889Z,9.69
2018-12-01T15:35:14.079Z,9.69
2018-12-01T15:40:13.576Z,9.69
2018-12-01T15:45:14.125Z,9.69
2018-12-01T15:50:13.439Z,9.69
2018-12-01T15:55:13.927Z,9.69
2018-12-01T16:00:14.128Z,9.59
2018-12-01T16:05:13.430Z,9.59
2018-12-01T16:10:13.922Z,9.59
2018-12-01T16:15:13.424Z,9.49
2018-12-01T16:20:13.743Z,9.39
2018-12-01T16:25:14.188Z,9.39
2018-12-01T16:30:13.424Z,9.39
2018-12-01T16:35:13.696Z,9.29
2018-12-01T16:40:14.176Z,9.29
2018-12-01T16:45:15.211Z,9.19
2018-12-01T16:50:14.120Z,9.29
2018-12-01T16:55:13.566Z,9.19
2018-12-01T17:00:13.344Z,9.19
2018-12-01T17:05:13.638Z,9.19
2018-12-01T17:10:14.173Z,9.09
2018-12-01T17:15:13.674Z,9.09
2018-12-01T17:20:13.969Z,8.99
2018-12-01T17:25:13.508Z,8.99
2018-12-01T17:30:13.697Z,8.99
2018-12-01T17:35:13.980Z,8.89
2018-12-01T17:40:13.486Z,8.89
2018-12-01T17:45:14.003Z,8.89
2018-12-01T17:50:13.290Z,8.89
2018-12-01T17:55:13.847Z,8.99
2018-12-01T18:00:14.028Z,8.89
2018-12-01T18:05:13.333Z,8.89
2018-12-01T18:10:13.780Z,8.89
2018-12-01T18:15:13.293Z,8.79
2018-12-01T18:20:13.618Z,8.89
2018-12-01T18:25:14.075Z,8.99
2018-12-01T18:30:13.338Z,8.89
2018-12-01T18:35:14.641Z,8.79
2018-12-01T18:40:14.076Z,8.79
2018-12-01T18:45:13.637Z,8.79
2018-12-01T18:50:13.921Z,8.79
2018-12-01T18:55:13.501Z,8.79
2018-12-01T19:00:13.642Z,8.69
2018-12-01T19:05:13.959Z,8.69
2018-12-01T19:10:13.470Z,8.69
2018-12-01T19:15:13.954Z,8.69
2018-12-01T19:20:13.262Z,8.69
2018-12-01T19:25:13.778Z,8.69
2018-12-01T19:30:13.952Z,8.69
2018-12-01T19:35:13.225Z,8.69
2018-12-01T19:40:13.760Z,8.69
2018-12-01T19:45:13.299Z,8.69
2018-12-01T19:50:13.638Z,8.69
2018-12-01T19:55:14.076Z,8.69
2018-12-01T20:00:13.353Z,8.69
2018-12-01T20:05:13.598Z,8.69
2018-12-01T20:10:14.066Z,8.69
2018-12-01T20:15:13.655Z,8.59
2018-12-01T20:20:14.025Z,8.69
2018-12-01T20:25:13.472Z,8.59
2018-12-01T20:30:13.621Z,8.59
2018-12-01T20:35:13.931Z,8.59
2018-12-01T20:40:13.482Z,8.59
2018-12-01T20:45:13.996Z,8.59
2018-12-01T20:50:13.310Z,8.49
2018-12-01T20:55:13.789Z,8.49
2018-12-01T21:00:13.980Z,8.49
2018-12-01T21:05:13.293Z,8.49
2018-12-01T21:10:13.808Z,8.39
2018-12-01T21:15:13.313Z,8.49
2018-12-01T21:20:13.697Z,8.49
2018-12-01T21:25:14.088Z,8.49
2018-12-01T21:30:13.341Z,8.49
2018-12-01T21:35:13.605Z,8.49
2018-12-01T21:40:14.063Z,8.49
2018-12-01T21:45:13.659Z,8.49
2018-12-01T21:50:13.965Z,8.49
2018-12-01T21:55:13.523Z,8.39
2018-12-01T22:00:13.754Z,8.39
2018-12-01T22:05:14.082Z,8.39
2018-12-01T22:10:13.456Z,8.39
2018-12-01T22:15:14.058Z,8.39
2018-12-01T22:20:13.261Z,8.49
2018-12-01T22:25:14.418Z,8.49
2018-12-01T22:30:13.970Z,8.49
2018-12-01T22:35:13.303Z,8.49
2018-12-01T22:40:13.755Z,8.49
2018-12-01T22:45:13.293Z,8.49
2018-12-01T22:50:13.577Z,8.49
2018-12-01T22:55:14.494Z,8.49
2018-12-01T23:00:13.300Z,8.49
2018-12-01T23:05:13.596Z,8.49
2018-12-01T23:10:14.047Z,8.49
2018-12-01T23:15:13.652Z,8.59
2018-12-01T23:20:13.925Z,8.59
2018-12-01T23:25:13.401Z,8.69
2018-12-01T23:30:13.530Z,8.69
2018-12-01T23:35:13.841Z,8.69
2018-12-01T23:40:13.389Z,8.79
2018-12-01T23:45:13.890Z,8.79
2018-12-01T23:50:14.156Z,8.79
2018-12-01T23:55:14.089Z,8.79
